New Salem, Massachusetts
Current Conditions -  °F | °C
As of 4:33 AM on Monday 24 Nov 2014 (Local Time) from KORE Reporting Station
Moderate Rain Moderate Rain  
Wind Chill: 36°   Ceiling: 1400
Heat Index: 36°   Visibility: 2.5mi
Dew Point: 34°   Wind: 0mph
Humidity: 93%   Direction: NA
Pressure: 29.89"   Gusts: NA
Location:  42.5°N, 72.33°W
Report Text: KORE 240933Z AUTO 00000KT 2 1/2SM RA BR OVC014 02/01 A2989 RMK AO2 P0005 T00220011
Loading
Personal Weather Stations






























Interactive Weather Map New forecast layout! Learn more

10-Day Weather Forecast

Advertisements
Track Severe Weather on mobile